This is the latest recevied weather packets stored in our database for station/object 9M2IBR-1. If no packets are shown the sender has not sent any weather packets the latest 10 day(s).
| Time | Temp. | Humidity | Pressure | Rain* | Wind** | Luminosity | Snow |
|---|---|---|---|---|---|---|---|
| 1777215343 | 27.22° C | 93% | 1008.3 hPa | 0 mm | - | 0 W/m² | - |
| 1777215025 | 27.22° C | 93% | 1008.4 hPa | 0 mm | - | 0 W/m² | - |
| 1777213818 | 27.22° C | 94% | 1008.2 hPa | 0 mm | - | 0 W/m² | - |
| 1777213529 | 27.22° C | 94% | 1008.2 hPa | 0 mm | - | 0 W/m² | - |
| 1777213227 | 27.22° C | 94% | 1008.2 hPa | 0 mm | - | 0 W/m² | - |
| 1777212022 | 26.67° C | 95% | 1007.9 hPa | 0 mm | - | 0 W/m² | - |
| 1777211745 | 26.67° C | 95% | 1007.9 hPa | 0 mm | - | 0 W/m² | - |
| 1777210822 | 27.22° C | 94% | 1008 hPa | 0 mm | - | 0 W/m² | - |
| 1777209317 | 27.22° C | 93% | 1007.7 hPa | 0 mm | - | 0 W/m² | - |
| 1777208428 | 27.22° C | 92% | 1007.5 hPa | 0 mm | - | 0 W/m² | - |
| 1777207542 | 27.22° C | 93% | 1007.2 hPa | 0 mm | - | 0 W/m² | - |
| 1777207224 | 27.22° C | 92% | 1007.1 hPa | 0 mm | - | 0 W/m² | - |
| 1777206923 | 27.78° C | 92% | 1007 hPa | 0 mm | - | 0 W/m² | - |
| 1777203926 | 27.78° C | 89% | 1006.2 hPa | 0 mm | - | 0 W/m² | - |
| 1777203640 | 28.33° C | 89% | 1006 hPa | 0 mm | - | 0 W/m² | - |
| 1777203328 | 28.33° C | 88% | 1006 hPa | 0 mm | - | 0 W/m² | - |
| 1777200932 | 30° C | 84% | 1005.7 hPa | 0 mm | - | 16 W/m² | - |
| 1777200328 | 30° C | 83% | 1005.5 hPa | 0 mm | - | 23 W/m² | - |
| 1777197337 | 31.11° C | 80% | 1005.4 hPa | 0 mm | - | 84 W/m² | - |
| 1777194968 | 31.67° C | 79% | 1005.7 hPa | 0 mm | - | 181 W/m² | - |
| 1777188925 | 32.78° C | 76% | 1006.3 hPa | 0 mm | - | 390 W/m² | - |
| 1777188323 | 32.22° C | 77% | 1006.4 hPa | 0 mm | - | 342 W/m² | - |
| 1777186516 | 32.78° C | 77% | 1006.9 hPa | 0 mm | - | 351 W/m² | - |
| 1777186271 | 32.78° C | 77% | 1006.9 hPa | 0 mm | - | 327 W/m² | - |
| 1777185638 | 32.78° C | 77% | 1007.1 hPa | 0 mm | - | 388 W/m² | - |
* Rain latest hour (hover to see other rain measurements)
** Current wind speed in m/s (hover to see current wind gust speed)